createdAt,value
2019-05-18T00:00:44.744Z,99.90
2019-05-18T00:03:20.051Z,99.90
2019-05-18T00:05:55.419Z,99.90
2019-05-18T00:08:30.645Z,99.90
2019-05-18T00:11:05.994Z,99.90
2019-05-18T00:13:41.264Z,99.90
2019-05-18T00:16:17.608Z,99.90
2019-05-18T00:18:52.920Z,99.90
2019-05-18T00:21:28.218Z,99.90
2019-05-18T00:24:03.542Z,99.90
2019-05-18T00:26:39.010Z,99.90
2019-05-18T00:29:15.993Z,99.90
2019-05-18T00:31:51.330Z,99.90
2019-05-18T00:34:26.562Z,99.90
2019-05-18T00:37:01.841Z,99.90
2019-05-18T00:39:37.267Z,99.90
2019-05-18T00:42:12.494Z,99.90
2019-05-18T00:44:47.785Z,99.90
2019-05-18T00:47:23.006Z,99.90
2019-05-18T00:49:58.505Z,99.90
2019-05-18T00:52:33.780Z,99.90
2019-05-18T00:55:09.348Z,99.90
2019-05-18T00:57:45.657Z,99.90
2019-05-18T01:00:22.501Z,99.90
2019-05-18T01:02:57.799Z,99.90
2019-05-18T01:05:33.034Z,99.90
2019-05-18T01:08:08.236Z,99.90
2019-05-18T01:10:44.115Z,99.90
2019-05-18T01:13:19.321Z,99.90
2019-05-18T01:15:54.633Z,99.90
2019-05-18T01:18:29.837Z,99.90
2019-05-18T01:21:05.456Z,99.90
2019-05-18T01:23:40.716Z,99.90
2019-05-18T01:26:15.955Z,99.90
2019-05-18T01:28:51.210Z,99.90
2019-05-18T01:31:26.576Z,99.90
2019-05-18T01:34:01.857Z,99.90
2019-05-18T01:36:37.147Z,99.90
2019-05-18T01:39:12.430Z,99.90
2019-05-18T01:41:47.904Z,99.90
2019-05-18T01:44:23.118Z,99.90
2019-05-18T01:46:58.428Z,99.90
2019-05-18T01:49:33.568Z,99.90
2019-05-18T01:52:08.935Z,99.90
2019-05-18T01:54:44.251Z,99.90
2019-05-18T01:57:19.493Z,99.90
2019-05-18T01:59:54.797Z,99.90
2019-05-18T02:02:30.058Z,99.90
2019-05-18T02:05:06.419Z,99.90
2019-05-18T02:07:42.749Z,99.90
2019-05-18T02:10:18.113Z,99.90
2019-05-18T02:12:53.699Z,99.90
2019-05-18T02:15:28.923Z,99.90
2019-05-18T02:18:04.237Z,99.90
2019-05-18T02:20:39.538Z,99.90
2019-05-18T02:23:14.990Z,99.90
2019-05-18T02:25:50.323Z,99.90
2019-05-18T02:28:25.633Z,99.90
2019-05-18T02:31:01.013Z,99.90
2019-05-18T02:33:36.342Z,99.90
2019-05-18T02:36:11.677Z,99.90
2019-05-18T02:38:58.242Z,99.90
2019-05-18T02:41:33.534Z,99.90
2019-05-18T02:44:08.754Z,99.90
2019-05-18T02:46:45.225Z,99.90
2019-05-18T02:49:21.504Z,99.90
2019-05-18T02:51:56.854Z,99.90
2019-05-18T02:54:32.101Z,99.90
2019-05-18T02:57:07.387Z,99.90
2019-05-18T02:59:42.700Z,99.90
2019-05-18T03:02:18.961Z,99.90
2019-05-18T03:04:54.214Z,99.90
2019-05-18T03:07:29.621Z,99.90
2019-05-18T03:10:05.220Z,99.90
2019-05-18T03:12:40.512Z,99.90
2019-05-18T03:15:15.874Z,99.90
2019-05-18T03:17:51.150Z,99.90
2019-05-18T03:20:26.566Z,99.90
2019-05-18T03:23:01.853Z,99.90
2019-05-18T03:25:37.235Z,99.90
2019-05-18T03:28:12.566Z,99.90
2019-05-18T03:30:47.807Z,99.90
2019-05-18T03:33:28.604Z,99.90
2019-05-18T03:35:59.905Z,99.90
2019-05-18T03:38:35.187Z,99.90
2019-05-18T03:41:10.540Z,99.90
2019-05-18T03:43:45.832Z,99.90
2019-05-18T03:46:24.103Z,99.90
2019-05-18T03:48:59.585Z,99.90
2019-05-18T03:51:34.934Z,99.90
2019-05-18T03:54:11.264Z,99.90
2019-05-18T03:56:46.764Z,99.90
2019-05-18T03:59:22.051Z,99.90
2019-05-18T04:01:57.381Z,99.90
2019-05-18T04:04:32.571Z,99.90
2019-05-18T04:07:07.943Z,99.90
2019-05-18T04:09:43.168Z,99.90
2019-05-18T04:12:18.449Z,99.90
2019-05-18T04:14:53.711Z,99.90
2019-05-18T04:17:29.009Z,99.90
2019-05-18T04:20:04.544Z,99.90
2019-05-18T04:22:39.868Z,99.90
2019-05-18T04:25:15.137Z,99.90
2019-05-18T04:27:50.479Z,99.90
2019-05-18T04:30:25.729Z,99.90
2019-05-18T04:33:01.004Z,99.90
2019-05-18T04:35:36.201Z,99.90
2019-05-18T04:38:11.460Z,99.90
2019-05-18T04:40:46.593Z,99.90
2019-05-18T04:43:22.047Z,99.90
2019-05-18T04:45:57.273Z,99.90
2019-05-18T04:48:32.607Z,99.90
2019-05-18T04:51:07.875Z,99.90
2019-05-18T04:53:43.280Z,99.90
2019-05-18T04:56:18.465Z,99.90
2019-05-18T04:58:54.267Z,99.90
2019-05-18T05:01:29.566Z,99.90
2019-05-18T05:04:04.874Z,99.90
2019-05-18T05:06:40.116Z,99.90
2019-05-18T05:09:16.975Z,99.90
2019-05-18T05:11:52.347Z,99.90
2019-05-18T05:14:27.722Z,99.90
2019-05-18T05:17:02.915Z,99.90
2019-05-18T05:19:38.082Z,99.90
2019-05-18T05:22:13.380Z,99.90
2019-05-18T05:24:48.619Z,99.90
2019-05-18T05:27:24.014Z,99.90
2019-05-18T05:29:59.260Z,99.90
2019-05-18T05:32:34.657Z,99.90
2019-05-18T05:35:10.008Z,99.90
2019-05-18T05:37:45.654Z,99.90
2019-05-18T05:40:22.469Z,99.90
2019-05-18T05:42:57.758Z,99.90
2019-05-18T05:45:33.063Z,99.90
2019-05-18T05:48:08.403Z,99.90
2019-05-18T05:50:43.828Z,99.90
2019-05-18T05:53:19.073Z,99.90
2019-05-18T05:55:57.423Z,99.90
2019-05-18T05:58:34.904Z,99.90
2019-05-18T06:01:10.238Z,99.90
2019-05-18T06:03:45.519Z,99.90
2019-05-18T06:06:34.111Z,99.90
2019-05-18T06:09:09.583Z,99.90
2019-05-18T06:11:44.840Z,99.90
2019-05-18T06:14:20.124Z,99.90
2019-05-18T06:16:55.540Z,99.90
2019-05-18T06:19:30.816Z,99.90
2019-05-18T06:22:06.116Z,99.90
2019-05-18T06:24:41.318Z,99.90
2019-05-18T06:27:17.574Z,99.90
2019-05-18T06:29:52.890Z,99.90
2019-05-18T06:32:28.445Z,99.90
2019-05-18T06:35:03.786Z,99.90
2019-05-18T06:37:40.192Z,99.90
2019-05-18T06:40:15.559Z,99.90
2019-05-18T06:42:50.808Z,99.90
2019-05-18T06:45:26.342Z,99.90
2019-05-18T06:48:01.763Z,99.90
2019-05-18T06:50:36.976Z,99.90
2019-05-18T06:53:12.224Z,99.90
2019-05-18T06:55:47.997Z,99.90
2019-05-18T06:58:23.640Z,99.90
2019-05-18T07:00:59.000Z,99.90
2019-05-18T07:03:34.299Z,99.90
2019-05-18T07:06:09.559Z,99.90
2019-05-18T07:08:44.848Z,99.90
2019-05-18T07:11:20.089Z,99.90
2019-05-18T07:13:55.433Z,99.90
2019-05-18T07:16:31.642Z,99.90
2019-05-18T07:19:07.040Z,99.90
2019-05-18T07:21:42.300Z,99.90
2019-05-18T07:24:17.750Z,99.90
2019-05-18T07:26:52.949Z,99.90
2019-05-18T07:29:29.145Z,99.90
2019-05-18T07:32:04.447Z,99.90
2019-05-18T07:34:39.810Z,99.90
2019-05-18T07:37:22.676Z,99.90
2019-05-18T07:40:00.851Z,99.90
2019-05-18T07:42:36.885Z,99.90
2019-05-18T07:45:13.652Z,99.90
2019-05-18T07:47:51.323Z,99.90
2019-05-18T07:50:29.424Z,99.90
2019-05-18T07:53:04.817Z,99.90
2019-05-18T07:55:40.121Z,99.90
2019-05-18T07:58:15.604Z,99.90
2019-05-18T08:00:51.068Z,99.90
2019-05-18T08:03:26.294Z,99.90
2019-05-18T08:06:01.624Z,99.90
2019-05-18T08:08:36.901Z,99.90
2019-05-18T08:11:12.204Z,99.90
2019-05-18T08:13:47.447Z,99.90
2019-05-18T08:16:22.761Z,99.90
2019-05-18T08:18:58.328Z,99.90
2019-05-18T08:21:33.619Z,99.90
2019-05-18T08:24:08.856Z,99.90
2019-05-18T08:26:44.187Z,99.90
2019-05-18T08:29:19.499Z,99.90
2019-05-18T08:31:54.905Z,99.90
2019-05-18T08:34:30.198Z,99.90
2019-05-18T08:37:05.530Z,99.90
2019-05-18T08:39:40.863Z,99.90
2019-05-18T08:42:16.203Z,99.90
2019-05-18T08:44:51.441Z,99.90
2019-05-18T08:47:26.766Z,99.90
2019-05-18T08:50:01.967Z,99.90
2019-05-18T08:52:37.445Z,99.90
2019-05-18T08:55:13.216Z,99.90
2019-05-18T08:57:48.577Z,99.90
2019-05-18T09:00:24.107Z,99.90
2019-05-18T09:02:59.621Z,99.90
2019-05-18T09:05:34.899Z,99.90
2019-05-18T09:08:10.220Z,99.50
2019-05-18T09:10:45.492Z,99.60
2019-05-18T09:13:21.020Z,99.90
2019-05-18T09:15:56.327Z,99.90
2019-05-18T09:18:31.566Z,99.40
2019-05-18T09:21:06.844Z,99.90
2019-05-18T09:23:42.270Z,99.90
2019-05-18T09:26:17.581Z,99.80
2019-05-18T09:28:52.978Z,99.50
2019-05-18T09:31:28.410Z,99.00
2019-05-18T09:34:03.744Z,98.60
2019-05-18T09:36:39.026Z,98.00
2019-05-18T09:39:14.283Z,99.10
2019-05-18T09:41:49.666Z,98.50
2019-05-18T09:44:24.994Z,98.80
2019-05-18T09:47:01.738Z,98.90
2019-05-18T09:49:37.065Z,98.30
2019-05-18T09:52:13.996Z,98.20
2019-05-18T09:54:49.338Z,96.80
2019-05-18T09:57:24.587Z,97.30
2019-05-18T10:00:00.189Z,95.90
2019-05-18T10:02:35.477Z,96.50
2019-05-18T10:05:30.894Z,96.50
2019-05-18T10:08:06.496Z,96.20
2019-05-18T10:10:42.109Z,97.10
2019-05-18T10:13:17.451Z,97.10
2019-05-18T10:15:53.093Z,96.20
2019-05-18T10:18:28.343Z,95.00
2019-05-18T10:21:03.905Z,95.40
2019-05-18T10:23:40.528Z,96.60
2019-05-18T10:26:16.184Z,94.10
2019-05-18T10:28:51.453Z,93.40
2019-05-18T10:31:26.794Z,93.50
2019-05-18T10:34:02.126Z,92.90
2019-05-18T10:36:37.711Z,92.30
2019-05-18T10:39:13.015Z,93.50
2019-05-18T10:41:48.251Z,94.10
2019-05-18T10:44:23.591Z,93.20
2019-05-18T10:46:59.894Z,92.60
2019-05-18T10:49:35.119Z,93.40
2019-05-18T10:52:10.357Z,91.80
2019-05-18T10:54:45.594Z,91.30
2019-05-18T10:57:21.037Z,92.60
2019-05-18T10:59:56.607Z,90.70
2019-05-18T11:02:32.181Z,92.50
2019-05-18T11:05:07.579Z,90.90
2019-05-18T11:07:44.374Z,92.40
2019-05-18T11:10:38.799Z,92.20
2019-05-18T11:13:17.104Z,90.00
2019-05-18T11:15:51.140Z,90.00
2019-05-18T11:18:26.392Z,90.10
2019-05-18T11:21:01.713Z,91.50
2019-05-18T11:23:43.792Z,91.50
2019-05-18T11:26:14.200Z,88.60
2019-05-18T11:28:49.459Z,89.50
2019-05-18T11:31:24.665Z,87.00
2019-05-18T11:34:12.051Z,89.30
2019-05-18T11:36:47.351Z,85.60
2019-05-18T11:39:22.624Z,86.20
2019-05-18T11:41:57.933Z,86.70
2019-05-18T11:44:33.241Z,85.30
2019-05-18T11:47:08.554Z,82.20
2019-05-18T11:49:43.914Z,81.80
2019-05-18T11:52:19.239Z,82.90
2019-05-18T11:54:54.596Z,82.30
2019-05-18T11:57:29.907Z,83.90
2019-05-18T12:00:06.134Z,80.20
2019-05-18T12:02:41.414Z,81.00
2019-05-18T12:05:17.104Z,80.30
2019-05-18T12:07:52.395Z,82.20
2019-05-18T12:10:27.698Z,80.70
2019-05-18T12:13:02.932Z,84.40
2019-05-18T12:15:38.238Z,84.20
2019-05-18T12:18:13.442Z,81.70
2019-05-18T12:20:48.681Z,83.10
2019-05-18T12:23:24.857Z,83.00
2019-05-18T12:26:00.307Z,82.80
2019-05-18T12:28:35.582Z,86.10
2019-05-18T12:31:11.048Z,83.00
2019-05-18T12:33:46.398Z,87.50
2019-05-18T12:36:21.722Z,83.20
2019-05-18T12:38:58.000Z,83.70
2019-05-18T12:41:33.362Z,78.30
2019-05-18T12:44:08.808Z,77.80
2019-05-18T12:46:44.799Z,77.60
2019-05-18T12:49:31.933Z,77.00
2019-05-18T12:52:07.159Z,77.00
2019-05-18T12:54:46.478Z,76.10
2019-05-18T12:57:19.401Z,77.30
2019-05-18T12:59:54.817Z,79.00
2019-05-18T13:02:30.133Z,80.20
2019-05-18T13:05:06.881Z,78.50
2019-05-18T13:07:42.228Z,76.60
2019-05-18T13:10:19.291Z,75.00
2019-05-18T13:12:54.671Z,72.80
2019-05-18T13:15:30.086Z,69.20
2019-05-18T13:18:05.313Z,71.30
2019-05-18T13:20:40.620Z,70.70
2019-05-18T13:23:16.018Z,66.90
2019-05-18T13:25:52.419Z,70.80
2019-05-18T13:28:27.742Z,70.70
2019-05-18T13:31:03.060Z,71.00
2019-05-18T13:33:38.540Z,70.20
2019-05-18T13:36:13.827Z,65.60
2019-05-18T13:38:49.041Z,61.20
2019-05-18T13:41:24.358Z,63.30
2019-05-18T13:43:59.835Z,65.30
2019-05-18T13:46:35.112Z,64.80
2019-05-18T13:49:10.442Z,66.90
2019-05-18T13:51:45.751Z,65.70
2019-05-18T13:54:21.164Z,64.70
2019-05-18T13:56:56.456Z,62.50
2019-05-18T13:59:31.792Z,64.20
2019-05-18T14:02:07.046Z,62.10
2019-05-18T14:04:43.434Z,63.90
2019-05-18T14:07:18.648Z,64.50
2019-05-18T14:09:54.088Z,65.80
2019-05-18T14:12:29.470Z,65.60
2019-05-18T14:15:05.283Z,65.60
2019-05-18T14:17:40.682Z,64.20
2019-05-18T14:20:16.174Z,63.30
2019-05-18T14:22:51.449Z,66.20
2019-05-18T14:25:26.818Z,61.20
2019-05-18T14:28:02.082Z,60.70
2019-05-18T14:30:37.354Z,59.90
2019-05-18T14:33:12.650Z,64.80
2019-05-18T14:35:49.163Z,67.70
2019-05-18T14:38:24.380Z,69.50
2019-05-18T14:40:59.865Z,69.90
2019-05-18T14:43:35.340Z,72.70
2019-05-18T14:46:10.709Z,78.10
2019-05-18T14:48:46.010Z,76.70
2019-05-18T14:51:21.467Z,75.20
2019-05-18T14:53:56.700Z,78.70
2019-05-18T14:56:31.993Z,79.20
2019-05-18T14:59:07.412Z,82.00
2019-05-18T15:01:42.801Z,83.50
2019-05-18T15:04:18.192Z,84.10
2019-05-18T15:06:53.452Z,86.40
2019-05-18T15:09:28.668Z,85.60
2019-05-18T15:12:04.079Z,86.90
2019-05-18T15:14:39.308Z,86.30
2019-05-18T15:17:14.559Z,86.70
2019-05-18T15:19:49.826Z,87.20
2019-05-18T15:22:25.268Z,85.70
2019-05-18T15:25:00.560Z,85.60
2019-05-18T15:27:35.896Z,86.30
2019-05-18T15:30:12.354Z,85.30
2019-05-18T15:32:47.699Z,85.50
2019-05-18T15:35:22.971Z,84.80
2019-05-18T15:37:58.348Z,84.30
2019-05-18T15:40:33.714Z,83.10
2019-05-18T15:43:09.042Z,83.00
2019-05-18T15:45:44.337Z,82.90
2019-05-18T15:48:19.609Z,84.20
2019-05-18T15:50:55.199Z,82.00
2019-05-18T15:53:30.616Z,83.00
2019-05-18T15:56:06.544Z,82.90
2019-05-18T15:58:41.866Z,86.60
2019-05-18T16:01:17.237Z,84.90
2019-05-18T16:03:52.479Z,85.60
2019-05-18T16:06:27.673Z,86.60
2019-05-18T16:09:04.573Z,85.70
2019-05-18T16:11:39.878Z,86.30
2019-05-18T16:14:16.274Z,87.00
2019-05-18T16:16:54.876Z,86.80
2019-05-18T16:19:28.654Z,88.60
2019-05-18T16:22:04.111Z,88.90
2019-05-18T16:24:39.424Z,90.00
2019-05-18T16:27:14.769Z,90.50
2019-05-18T16:29:50.096Z,89.90
2019-05-18T16:32:25.314Z,90.90
2019-05-18T16:35:00.688Z,90.40
2019-05-18T16:37:36.083Z,90.70
2019-05-18T16:40:12.115Z,90.70
2019-05-18T16:42:47.310Z,89.90
2019-05-18T16:45:22.770Z,90.90
2019-05-18T16:47:58.065Z,90.00
2019-05-18T16:50:33.436Z,90.10
2019-05-18T16:53:08.774Z,90.20
2019-05-18T16:55:45.527Z,89.10
2019-05-18T16:58:20.947Z,90.00
2019-05-18T17:00:56.780Z,90.60
2019-05-18T17:03:42.797Z,90.30
2019-05-18T17:06:18.454Z,90.70
2019-05-18T17:11:56.247Z,91.10
2019-05-18T17:14:35.360Z,91.20
2019-05-18T17:17:10.946Z,91.90
2019-05-18T17:19:46.299Z,93.60
2019-05-18T17:22:21.801Z,92.70
2019-05-18T17:25:00.403Z,92.60
2019-05-18T17:27:35.732Z,92.70
2019-05-18T17:30:12.329Z,92.60
2019-05-18T17:32:47.672Z,92.50
2019-05-18T17:35:22.993Z,92.60
2019-05-18T17:37:58.469Z,93.20
2019-05-18T17:40:33.774Z,93.80
2019-05-18T17:43:09.110Z,94.00
2019-05-18T17:45:47.409Z,94.30
2019-05-18T17:48:22.746Z,93.40
2019-05-18T17:50:58.029Z,93.70
2019-05-18T17:53:33.316Z,94.40
2019-05-18T17:56:08.812Z,94.60
2019-05-18T17:58:44.080Z,95.40
2019-05-18T18:01:19.600Z,95.30
2019-05-18T18:03:55.021Z,95.40
2019-05-18T18:06:30.241Z,95.70
2019-05-18T18:09:07.247Z,95.30
2019-05-18T18:12:12.246Z,95.10
2019-05-18T18:14:47.602Z,95.60
2019-05-18T18:17:22.928Z,95.50
2019-05-18T18:19:58.543Z,96.30
2019-05-18T18:22:33.877Z,95.70
2019-05-18T18:25:09.225Z,95.80
2019-05-18T18:27:53.355Z,95.80
2019-05-18T18:30:28.866Z,96.60
2019-05-18T18:33:04.231Z,95.90
2019-05-18T18:36:00.977Z,96.00
2019-05-18T18:38:47.140Z,96.30
2019-05-18T18:41:22.526Z,96.70
2019-05-18T18:43:57.839Z,96.80
2019-05-18T18:46:33.348Z,96.70
2019-05-18T18:49:08.620Z,96.90
2019-05-18T18:51:44.005Z,96.90
2019-05-18T18:54:22.464Z,96.60
2019-05-18T18:56:57.780Z,97.10
2019-05-18T18:59:33.001Z,97.20
2019-05-18T19:02:08.365Z,97.50
2019-05-18T19:04:43.674Z,98.30
2019-05-18T19:07:18.949Z,98.30
2019-05-18T19:09:54.244Z,98.40
2019-05-18T19:12:29.640Z,98.60
2019-05-18T19:15:05.376Z,98.90
2019-05-18T19:17:41.045Z,98.90
2019-05-18T19:20:16.677Z,99.20
2019-05-18T19:22:52.147Z,99.40
2019-05-18T19:25:27.453Z,99.60
2019-05-18T19:28:02.870Z,99.80
2019-05-18T19:30:38.367Z,99.80
2019-05-18T19:33:16.438Z,99.90
2019-05-18T19:35:51.771Z,99.90
2019-05-18T19:38:27.469Z,99.90
2019-05-18T19:41:02.776Z,99.90
2019-05-18T19:43:38.177Z,99.90
2019-05-18T19:46:13.583Z,99.90
2019-05-18T19:48:51.978Z,99.90
2019-05-18T19:51:30.500Z,99.90
2019-05-18T19:54:12.286Z,99.90
2019-05-18T19:56:47.670Z,99.90
2019-05-18T19:59:22.956Z,99.90
2019-05-18T20:02:05.810Z,99.90
2019-05-18T20:04:41.098Z,99.90
2019-05-18T20:07:16.380Z,99.90
2019-05-18T20:09:53.021Z,99.90
2019-05-18T20:12:28.238Z,99.90
2019-05-18T20:15:09.476Z,99.90
2019-05-18T20:17:54.014Z,99.90
2019-05-18T20:20:29.340Z,99.90
2019-05-18T20:23:08.064Z,99.90
2019-05-18T20:25:42.307Z,99.90
2019-05-18T20:28:23.697Z,99.90
2019-05-18T20:30:55.666Z,99.90
2019-05-18T20:33:32.681Z,99.90
2019-05-18T20:36:08.023Z,99.90
2019-05-18T20:38:43.287Z,99.90
2019-05-18T20:41:18.517Z,99.90
2019-05-18T20:43:53.882Z,99.90
2019-05-18T20:46:29.171Z,99.90
2019-05-18T20:49:04.379Z,99.90
2019-05-18T20:51:39.795Z,99.90
2019-05-18T20:54:15.307Z,99.90
2019-05-18T20:56:50.654Z,99.90
2019-05-18T20:59:26.009Z,99.90
2019-05-18T21:02:01.494Z,99.90
2019-05-18T21:04:37.862Z,99.90
2019-05-18T21:07:13.271Z,99.90
2019-05-18T21:09:48.714Z,99.90
2019-05-18T21:12:23.961Z,99.90
2019-05-18T21:14:59.240Z,99.90
2019-05-18T21:17:34.604Z,99.90
2019-05-18T21:20:10.161Z,99.90
2019-05-18T21:22:45.568Z,99.90
2019-05-18T21:25:20.876Z,99.90
2019-05-18T21:27:56.184Z,99.90
2019-05-18T21:30:31.465Z,99.90
2019-05-18T21:33:08.503Z,99.90
2019-05-18T21:35:43.836Z,99.90
2019-05-18T21:38:19.396Z,99.90
2019-05-18T21:40:54.775Z,99.90
2019-05-18T21:43:30.052Z,99.90
2019-05-18T21:46:05.384Z,99.90
2019-05-18T21:48:40.732Z,99.90
2019-05-18T21:51:16.059Z,99.90
2019-05-18T21:53:51.397Z,99.90
2019-05-18T21:56:32.287Z,99.90
2019-05-18T21:59:11.691Z,99.90
2019-05-18T22:01:44.887Z,99.90
2019-05-18T22:04:20.341Z,99.90
2019-05-18T22:06:56.117Z,99.90
2019-05-18T22:09:31.986Z,99.90
2019-05-18T22:12:12.967Z,99.90
2019-05-18T22:14:48.279Z,99.90
2019-05-18T22:17:23.873Z,99.90
2019-05-18T22:19:59.678Z,99.90
2019-05-18T22:22:35.621Z,99.90
2019-05-18T22:25:15.264Z,99.90
2019-05-18T22:27:50.536Z,99.90
2019-05-18T22:30:25.923Z,99.90
2019-05-18T22:33:06.775Z,99.90
2019-05-18T22:35:42.167Z,99.90
2019-05-18T22:38:17.891Z,99.90
2019-05-18T22:40:55.284Z,99.90
2019-05-18T22:43:33.266Z,99.90
2019-05-18T22:46:08.570Z,99.90
2019-05-18T22:48:44.418Z,99.90
2019-05-18T22:51:19.668Z,99.90
2019-05-18T22:53:55.302Z,99.90
2019-05-18T22:56:30.775Z,99.90
2019-05-18T22:59:06.026Z,99.90
2019-05-18T23:01:41.677Z,99.90
2019-05-18T23:04:16.914Z,99.90
2019-05-18T23:06:52.220Z,99.90
2019-05-18T23:09:28.044Z,99.90
2019-05-18T23:12:03.328Z,99.90
2019-05-18T23:14:38.648Z,99.90
2019-05-18T23:17:20.864Z,99.90
2019-05-18T23:19:56.295Z,99.90
2019-05-18T23:22:31.679Z,99.90
2019-05-18T23:25:09.136Z,99.90
2019-05-18T23:27:44.489Z,99.90
2019-05-18T23:30:19.815Z,99.90
2019-05-18T23:32:58.512Z,99.90
2019-05-18T23:35:37.067Z,99.90
2019-05-18T23:38:12.418Z,99.90
2019-05-18T23:40:50.447Z,99.90
2019-05-18T23:43:25.678Z,99.90
2019-05-18T23:46:01.002Z,99.90
2019-05-18T23:48:36.442Z,99.90
2019-05-18T23:51:11.749Z,99.90
2019-05-18T23:53:47.080Z,99.90
2019-05-18T23:56:22.315Z,99.90
2019-05-18T23:58:57.593Z,99.90
